sensor_id;sensor_type;location;lat;lon;timestamp;pressure;altitude;pressure_sealevel;temperature;humidity
66627;BME280;53498;50.422;14.912;2023-06-05T00:02:00;99375.72;;;15.19;48.01
66627;BME280;53498;50.422;14.912;2023-06-05T00:04:25;99373.00;;;15.25;47.98
66627;BME280;53498;50.422;14.912;2023-06-05T00:06:51;99382.59;;;15.26;48.28
66627;BME280;53498;50.422;14.912;2023-06-05T00:09:17;99373.88;;;15.27;46.32
66627;BME280;53498;50.422;14.912;2023-06-05T00:11:43;99366.78;;;15.32;46.90
66627;BME280;53498;50.422;14.912;2023-06-05T00:14:08;99367.63;;;15.36;47.13
66627;BME280;53498;50.422;14.912;2023-06-05T00:16:34;99368.50;;;15.36;49.07
66627;BME280;53498;50.422;14.912;2023-06-05T00:19:00;99374.03;;;15.15;49.82
66627;BME280;53498;50.422;14.912;2023-06-05T00:21:26;99370.03;;;14.85;51.80
66627;BME280;53498;50.422;14.912;2023-06-05T00:23:52;99372.91;;;14.65;53.46
66627;BME280;53498;50.422;14.912;2023-06-05T00:26:17;99369.41;;;14.67;53.34
66627;BME280;53498;50.422;14.912;2023-06-05T00:28:43;99370.25;;;14.66;53.34
66627;BME280;53498;50.422;14.912;2023-06-05T00:31:09;99377.25;;;14.67;53.18
66627;BME280;53498;50.422;14.912;2023-06-05T00:33:34;99372.81;;;14.74;53.92
66627;BME280;53498;50.422;14.912;2023-06-05T00:36:00;99372.91;;;14.65;53.15
66627;BME280;53498;50.422;14.912;2023-06-05T00:38:25;99367.13;;;14.32;53.94
66627;BME280;53498;50.422;14.912;2023-06-05T00:40:51;99371.59;;;14.24;55.43
66627;BME280;53498;50.422;14.912;2023-06-05T00:43:17;99368.94;;;14.27;54.50
66627;BME280;53498;50.422;14.912;2023-06-05T00:45:42;99374.03;;;14.39;54.49
66627;BME280;53498;50.422;14.912;2023-06-05T00:48:08;99367.88;;;14.43;56.29
66627;BME280;53498;50.422;14.912;2023-06-05T00:50:34;99363.50;;;14.45;56.88
66627;BME280;53498;50.422;14.912;2023-06-05T00:53:03;99359.13;;;14.44;57.03
66627;BME280;53498;50.422;14.912;2023-06-05T00:55:29;99354.91;;;14.34;56.91
66627;BME280;53498;50.422;14.912;2023-06-05T00:57:55;99366.38;;;14.21;57.32
66627;BME280;53498;50.422;14.912;2023-06-05T01:00:21;99357.66;;;14.19;57.18
66627;BME280;53498;50.422;14.912;2023-06-05T01:02:47;99365.53;;;14.17;55.92
66627;BME280;53498;50.422;14.912;2023-06-05T01:05:13;99362.16;;;14.06;56.26
66627;BME280;53498;50.422;14.912;2023-06-05T01:07:39;99369.31;;;13.84;56.99
66627;BME280;53498;50.422;14.912;2023-06-05T01:10:07;99366.63;;;13.93;56.52
66627;BME280;53498;50.422;14.912;2023-06-05T01:12:46;99373.63;;;13.91;56.81
66627;BME280;53498;50.422;14.912;2023-06-05T01:15:16;99374.41;;;14.02;57.11
66627;BME280;53498;50.422;14.912;2023-06-05T01:17:43;99374.44;;;14.01;57.52
66627;BME280;53498;50.422;14.912;2023-06-05T01:20:13;99368.31;;;13.97;58.42
66627;BME280;53498;50.422;14.912;2023-06-05T01:22:40;99371.84;;;13.96;58.59
66627;BME280;53498;50.422;14.912;2023-06-05T01:25:06;99380.59;;;13.92;58.37
66627;BME280;53498;50.422;14.912;2023-06-05T01:27:46;99373.63;;;13.93;58.89
66627;BME280;53498;50.422;14.912;2023-06-05T01:30:41;99367.59;;;13.83;57.90
66627;BME280;53498;50.422;14.912;2023-06-05T01:33:14;99368.47;;;13.82;59.08
66627;BME280;53498;50.422;14.912;2023-06-05T01:35:43;99375.44;;;13.83;58.42
66627;BME280;53498;50.422;14.912;2023-06-05T01:38:11;99368.44;;;13.85;58.94
66627;BME280;53498;50.422;14.912;2023-06-05T01:40:37;99372.09;;;13.67;58.65
66627;BME280;53498;50.422;14.912;2023-06-05T01:43:04;99374.66;;;13.73;58.75
66627;BME280;53498;50.422;14.912;2023-06-05T01:45:36;99374.59;;;13.82;58.01
66627;BME280;53498;50.422;14.912;2023-06-05T01:48:02;99378.03;;;13.86;58.62
66627;BME280;53498;50.422;14.912;2023-06-05T01:50:33;99370.22;;;13.83;59.22
66627;BME280;53498;50.422;14.912;2023-06-05T01:52:58;99368.59;;;13.67;58.23
66627;BME280;53498;50.422;14.912;2023-06-05T01:55:27;99374.81;;;13.47;58.69
66627;BME280;53498;50.422;14.912;2023-06-05T01:57:54;99374.81;;;13.47;59.14
66627;BME280;53498;50.422;14.912;2023-06-05T02:00:20;99372.28;;;13.35;59.14
66627;BME280;53498;50.422;14.912;2023-06-05T02:02:46;99367.03;;;13.42;60.03
66627;BME280;53498;50.422;14.912;2023-06-05T02:05:17;99374.00;;;13.42;60.76
66627;BME280;53498;50.422;14.912;2023-06-05T02:07:46;99366.22;;;13.36;60.43
66627;BME280;53498;50.422;14.912;2023-06-05T02:10:19;99368.06;;;13.09;60.66
66627;BME280;53498;50.422;14.912;2023-06-05T02:12:45;99371.50;;;13.13;61.11
66627;BME280;53498;50.422;14.912;2023-06-05T02:15:11;99367.13;;;13.27;61.69
66627;BME280;53498;50.422;14.912;2023-06-05T02:17:41;99361.03;;;13.30;61.09
66627;BME280;53498;50.422;14.912;2023-06-05T02:20:20;99357.50;;;13.34;60.87
66627;BME280;53498;50.422;14.912;2023-06-05T02:22:46;99360.22;;;13.09;60.58
66627;BME280;53498;50.422;14.912;2023-06-05T02:25:15;99368.06;;;13.06;60.91
66627;BME280;53498;50.422;14.912;2023-06-05T02:27:41;99356.78;;;13.00;61.02
66627;BME280;53498;50.422;14.912;2023-06-05T02:30:07;99361.09;;;13.08;61.28
66627;BME280;53498;50.422;14.912;2023-06-05T02:32:34;99363.75;;;13.02;60.82
66627;BME280;53498;50.422;14.912;2023-06-05T02:35:02;99362.03;;;12.98;60.54
66627;BME280;53498;50.422;14.912;2023-06-05T02:37:27;99368.25;;;12.72;61.45
66627;BME280;53498;50.422;14.912;2023-06-05T02:39:54;99362.97;;;12.83;61.36
66627;BME280;53498;50.422;14.912;2023-06-05T02:42:19;99362.13;;;12.80;61.34
66627;BME280;53498;50.422;14.912;2023-06-05T02:44:46;99361.25;;;12.74;61.70
66627;BME280;53498;50.422;14.912;2023-06-05T02:47:12;99362.06;;;12.87;61.50
66627;BME280;53498;50.422;14.912;2023-06-05T02:49:38;99369.94;;;12.75;61.60
66627;BME280;53498;50.422;14.912;2023-06-05T02:52:04;99363.81;;;12.87;61.64
66627;BME280;53498;50.422;14.912;2023-06-05T02:54:29;99363.88;;;12.76;62.05
66627;BME280;53498;50.422;14.912;2023-06-05T02:56:55;99363.00;;;12.79;61.63
66627;BME280;53498;50.422;14.912;2023-06-05T02:59:22;99352.47;;;12.95;61.78
66627;BME280;53498;50.422;14.912;2023-06-05T03:01:53;99352.50;;;12.89;61.96
66627;BME280;53498;50.422;14.912;2023-06-05T03:04:19;99351.53;;;13.07;61.93
66627;BME280;53498;50.422;14.912;2023-06-05T03:06:47;99349.78;;;13.09;61.38
66627;BME280;53498;50.422;14.912;2023-06-05T03:09:13;99346.31;;;13.06;62.83
66627;BME280;53498;50.422;14.912;2023-06-05T03:11:39;99341.06;;;13.13;62.89
66627;BME280;53498;50.422;14.912;2023-06-05T03:14:05;99347.22;;;13.02;61.35
66627;BME280;53498;50.422;14.912;2023-06-05T03:16:31;99348.06;;;13.05;62.41
66627;BME280;53498;50.422;14.912;2023-06-05T03:18:58;99340.31;;;12.94;62.16
66627;BME280;53498;50.422;14.912;2023-06-05T03:21:23;99332.50;;;12.87;62.14
66627;BME280;53498;50.422;14.912;2023-06-05T03:23:49;99341.13;;;13.04;61.59
66627;BME280;53498;50.422;14.912;2023-06-05T03:26:14;99339.34;;;13.11;61.23
66627;BME280;53498;50.422;14.912;2023-06-05T03:28:40;99341.88;;;13.23;61.02
66627;BME280;53498;50.422;14.912;2023-06-05T03:31:06;99347.97;;;13.20;61.42
66627;BME280;53498;50.422;14.912;2023-06-05T03:33:32;99341.03;;;13.19;61.23
66627;BME280;53498;50.422;14.912;2023-06-05T03:35:57;99337.59;;;13.11;61.27
66627;BME280;53498;50.422;14.912;2023-06-05T03:38:23;99336.66;;;13.26;61.25
66627;BME280;53498;50.422;14.912;2023-06-05T03:40:48;99342.66;;;13.42;61.12
66627;BME280;53498;50.422;14.912;2023-06-05T03:43:14;99335.66;;;13.46;63.05
66627;BME280;53498;50.422;14.912;2023-06-05T03:45:40;99337.28;;;13.59;61.51
66627;BME280;53498;50.422;14.912;2023-06-05T03:48:06;99336.31;;;13.74;61.46
66627;BME280;53498;50.422;14.912;2023-06-05T03:50:32;99332.78;;;13.78;61.13
66627;BME280;53498;50.422;14.912;2023-06-05T03:52:59;99330.06;;;13.87;60.23
66627;BME280;53498;50.422;14.912;2023-06-05T03:55:32;99328.34;;;13.84;60.86
66627;BME280;53498;50.422;14.912;2023-06-05T03:58:09;99327.56;;;13.75;60.02
66627;BME280;53498;50.422;14.912;2023-06-05T04:00:34;99330.06;;;13.88;59.10
66627;BME280;53498;50.422;14.912;2023-06-05T04:03:00;99335.19;;;13.99;57.02
66627;BME280;53498;50.422;14.912;2023-06-05T04:05:26;99329.94;;;14.02;55.09
66627;BME280;53498;50.422;14.912;2023-06-05T04:07:53;99334.25;;;14.06;55.14
66627;BME280;53498;50.422;14.912;2023-06-05T04:10:18;99341.13;;;14.15;56.30
66627;BME280;53498;50.422;14.912;2023-06-05T04:12:44;99338.38;;;14.29;55.05
66627;BME280;53498;50.422;14.912;2023-06-05T04:15:09;99339.22;;;14.31;53.95
66627;BME280;53498;50.422;14.912;2023-06-05T04:17:35;99333.13;;;14.29;53.73
66627;BME280;53498;50.422;14.912;2023-06-05T04:20:03;99331.34;;;14.35;53.66
66627;BME280;53498;50.422;14.912;2023-06-05T04:22:29;99339.06;;;14.46;54.06
66627;BME280;53498;50.422;14.912;2023-06-05T04:24:55;99337.34;;;14.44;54.40
66627;BME280;53498;50.422;14.912;2023-06-05T04:27:20;99338.16;;;14.52;54.32
66627;BME280;53498;50.422;14.912;2023-06-05T04:29:46;99333.59;;;14.68;53.79
66627;BME280;53498;50.422;14.912;2023-06-05T04:32:13;99341.16;;;14.91;54.48
66627;BME280;53498;50.422;14.912;2023-06-05T04:34:39;99349.72;;;15.03;54.95
66627;BME280;53498;50.422;14.912;2023-06-05T04:37:05;99348.84;;;15.04;53.40
66627;BME280;53498;50.422;14.912;2023-06-05T04:39:31;99345.34;;;15.04;53.69
66627;BME280;53498;50.422;14.912;2023-06-05T04:41:56;99347.91;;;15.09;53.27
66627;BME280;53498;50.422;14.912;2023-06-05T04:44:22;99339.91;;;15.18;52.56
66627;BME280;53498;50.422;14.912;2023-06-05T04:46:48;99342.50;;;15.21;52.42
66627;BME280;53498;50.422;14.912;2023-06-05T04:49:14;99338.09;;;15.23;52.47
66627;BME280;53498;50.422;14.912;2023-06-05T04:51:40;99341.34;;;15.40;51.58
66627;BME280;53498;50.422;14.912;2023-06-05T04:54:09;99337.94;;;15.34;52.77
66627;BME280;53498;50.422;14.912;2023-06-05T04:56:36;99333.41;;;15.45;52.46
66627;BME280;53498;50.422;14.912;2023-06-05T04:59:04;99335.75;;;15.62;52.62
66627;BME280;53498;50.422;14.912;2023-06-05T05:01:30;99333.47;;;15.40;52.00
66627;BME280;53498;50.422;14.912;2023-06-05T05:03:55;99337.03;;;15.36;51.27
66627;BME280;53498;50.422;14.912;2023-06-05T05:06:21;99339.84;;;15.81;51.18
66627;BME280;53498;50.422;14.912;2023-06-05T05:08:47;99336.69;;;16.12;51.05
66627;BME280;53498;50.422;14.912;2023-06-05T05:11:17;99337.16;;;16.32;49.72
66627;BME280;53498;50.422;14.912;2023-06-05T05:13:43;99327.94;;;16.58;48.87
66627;BME280;53498;50.422;14.912;2023-06-05T05:16:09;99332.22;;;16.60;48.25
66627;BME280;53498;50.422;14.912;2023-06-05T05:18:40;99328.69;;;16.63;47.27
66627;BME280;53498;50.422;14.912;2023-06-05T05:21:07;99336.66;;;17.02;47.23
66627;BME280;53498;50.422;14.912;2023-06-05T05:23:32;99333.25;;;17.35;46.77
66627;BME280;53498;50.422;14.912;2023-06-05T05:26:04;99336.66;;;17.41;44.96
66627;BME280;53498;50.422;14.912;2023-06-05T05:28:30;99337.44;;;17.44;43.94
66627;BME280;53498;50.422;14.912;2023-06-05T05:30:56;99340.34;;;17.69;43.83
66627;BME280;53498;50.422;14.912;2023-06-05T05:33:22;99337.63;;;17.72;44.25
66627;BME280;53498;50.422;14.912;2023-06-05T05:35:48;99340.28;;;17.72;43.89
66627;BME280;53498;50.422;14.912;2023-06-05T05:38:14;99334.59;;;17.91;44.98
66627;BME280;53498;50.422;14.912;2023-06-05T05:40:40;99337.38;;;17.85;44.03
66627;BME280;53498;50.422;14.912;2023-06-05T05:43:05;99340.34;;;17.69;42.66
66627;BME280;53498;50.422;14.912;2023-06-05T05:45:31;99347.03;;;17.84;42.17
66627;BME280;53498;50.422;14.912;2023-06-05T05:47:57;99358.63;;;17.77;41.93
66627;BME280;53498;50.422;14.912;2023-06-05T05:50:22;99349.75;;;17.79;42.23
66627;BME280;53498;50.422;14.912;2023-06-05T05:52:48;99352.50;;;17.75;42.28
66627;BME280;53498;50.422;14.912;2023-06-05T05:55:16;99353.78;;;17.96;41.82
66627;BME280;53498;50.422;14.912;2023-06-05T05:57:41;99345.38;;;18.14;41.65
66627;BME280;53498;50.422;14.912;2023-06-05T06:00:07;99355.88;;;18.16;41.45
66627;BME280;53498;50.422;14.912;2023-06-05T06:02:41;99350.41;;;18.55;41.19
66627;BME280;53498;50.422;14.912;2023-06-05T06:05:08;99352.03;;;18.91;40.31
66627;BME280;53498;50.422;14.912;2023-06-05T06:07:34;99354.63;;;19.79;38.54
66627;BME280;53498;50.422;14.912;2023-06-05T06:10:01;99341.25;;;20.84;36.52
66627;BME280;53498;50.422;14.912;2023-06-05T06:12:27;99351.66;;;22.00;34.69
66627;BME280;53498;50.422;14.912;2023-06-05T06:14:56;99347.41;;;22.98;33.26
66627;BME280;53498;50.422;14.912;2023-06-05T06:17:22;99355.16;;;23.94;31.97
66627;BME280;53498;50.422;14.912;2023-06-05T06:19:47;99350.50;;;24.34;30.74
66627;BME280;53498;50.422;14.912;2023-06-05T06:22:14;99351.09;;;23.31;32.28
66627;BME280;53498;50.422;14.912;2023-06-05T06:24:41;99352.34;;;23.24;33.59
66627;BME280;53498;50.422;14.912;2023-06-05T06:27:08;99348.47;;;23.50;33.29
66627;BME280;53498;50.422;14.912;2023-06-05T06:29:34;99344.44;;;23.42;32.02
66627;BME280;53498;50.422;14.912;2023-06-05T06:32:00;99352.16;;;23.10;32.56
66627;BME280;53498;50.422;14.912;2023-06-05T06:34:25;99349.78;;;22.83;32.63
66627;BME280;53498;50.422;14.912;2023-06-05T06:36:51;99341.84;;;22.44;35.22
66627;BME280;53498;50.422;14.912;2023-06-05T06:39:17;99344.28;;;22.08;35.25
66627;BME280;53498;50.422;14.912;2023-06-05T06:41:44;99353.16;;;22.07;34.75
66627;BME280;53498;50.422;14.912;2023-06-05T06:44:10;99342.97;;;21.76;35.31
66627;BME280;53498;50.422;14.912;2023-06-05T06:46:36;99345.69;;;21.07;36.48
66627;BME280;53498;50.422;14.912;2023-06-05T06:49:02;99349.69;;;21.17;37.19
66627;BME280;53498;50.422;14.912;2023-06-05T06:51:28;99346.94;;;20.96;36.17
66627;BME280;53498;50.422;14.912;2023-06-05T06:53:54;99344.16;;;21.01;37.20
66627;BME280;53498;50.422;14.912;2023-06-05T06:56:19;99351.16;;;21.02;36.42
66627;BME280;53498;50.422;14.912;2023-06-05T06:58:46;99345.09;;;21.22;36.49
66627;BME280;53498;50.422;14.912;2023-06-05T07:01:11;99346.53;;;21.53;36.05
66627;BME280;53498;50.422;14.912;2023-06-05T07:03:38;99346.97;;;21.18;35.99
66627;BME280;53498;50.422;14.912;2023-06-05T07:06:05;99349.47;;;20.99;36.97
66627;BME280;53498;50.422;14.912;2023-06-05T07:08:31;99348.09;;;21.13;37.51
66627;BME280;53498;50.422;14.912;2023-06-05T07:10:56;99350.06;;;21.08;37.96
66627;BME280;53498;50.422;14.912;2023-06-05T07:13:22;99355.06;;;21.15;36.80
66627;BME280;53498;50.422;14.912;2023-06-05T07:15:48;99351.31;;;21.44;36.08
66627;BME280;53498;50.422;14.912;2023-06-05T07:18:16;99359.00;;;21.73;35.60
66627;BME280;53498;50.422;14.912;2023-06-05T07:20:42;99354.44;;;21.97;35.82
66627;BME280;53498;50.422;14.912;2023-06-05T07:23:08;99353.84;;;22.32;36.15
66627;BME280;53498;50.422;14.912;2023-06-05T07:25:36;99347.22;;;22.22;35.27
66627;BME280;53498;50.422;14.912;2023-06-05T07:28:09;99352.91;;;22.33;35.61
66627;BME280;53498;50.422;14.912;2023-06-05T07:30:37;99349.19;;;22.58;35.31
66627;BME280;53498;50.422;14.912;2023-06-05T07:33:03;99349.50;;;22.90;35.66
66627;BME280;53498;50.422;14.912;2023-06-05T07:35:32;99342.53;;;23.07;35.16
66627;BME280;53498;50.422;14.912;2023-06-05T07:37:57;99340.88;;;22.84;34.96
66627;BME280;53498;50.422;14.912;2023-06-05T07:40:23;99339.72;;;22.52;36.37
66627;BME280;53498;50.422;14.912;2023-06-05T07:42:48;99332.91;;;22.26;36.29
66627;BME280;53498;50.422;14.912;2023-06-05T07:45:14;99334.97;;;22.59;35.95
66627;BME280;53498;50.422;14.912;2023-06-05T07:47:39;99338.53;;;22.39;36.05
66627;BME280;53498;50.422;14.912;2023-06-05T07:50:06;99332.91;;;22.26;36.68
66627;BME280;53498;50.422;14.912;2023-06-05T07:52:32;99326.69;;;22.67;34.76
66627;BME280;53498;50.422;14.912;2023-06-05T07:54:58;99324.75;;;22.70;34.64
66627;BME280;53498;50.422;14.912;2023-06-05T07:57:24;99323.38;;;22.61;35.71
66627;BME280;53498;50.422;14.912;2023-06-05T07:59:50;99322.94;;;22.52;35.22
66627;BME280;53498;50.422;14.912;2023-06-05T08:02:19;99323.69;;;22.35;34.39
66627;BME280;53498;50.422;14.912;2023-06-05T08:04:45;99315.25;;;22.66;33.38
66627;BME280;53498;50.422;14.912;2023-06-05T08:07:12;99319.66;;;22.84;33.49
66627;BME280;53498;50.422;14.912;2023-06-05T08:09:37;99316.25;;;22.82;33.13
66627;BME280;53498;50.422;14.912;2023-06-05T08:12:03;99311.78;;;22.64;34.02
66627;BME280;53498;50.422;14.912;2023-06-05T08:14:29;99310.13;;;22.61;33.90
66627;BME280;53498;50.422;14.912;2023-06-05T08:16:55;99312.28;;;22.53;33.84
66627;BME280;53498;50.422;14.912;2023-06-05T08:19:21;99311.53;;;22.50;34.53
66627;BME280;53498;50.422;14.912;2023-06-05T08:21:50;99313.13;;;22.54;34.79
66627;BME280;53498;50.422;14.912;2023-06-05T08:24:16;99329.47;;;23.03;34.34
66627;BME280;53498;50.422;14.912;2023-06-05T08:26:42;99320.56;;;23.42;33.39
66627;BME280;53498;50.422;14.912;2023-06-05T08:29:08;99314.78;;;22.96;33.24
66627;BME280;53498;50.422;14.912;2023-06-05T08:31:33;99326.63;;;23.44;33.11
66627;BME280;53498;50.422;14.912;2023-06-05T08:34:01;99317.81;;;22.86;32.83
66627;BME280;53498;50.422;14.912;2023-06-05T08:36:27;99319.22;;;23.14;32.98
66627;BME280;53498;50.422;14.912;2023-06-05T08:38:53;99325.00;;;23.41;32.33
66627;BME280;53498;50.422;14.912;2023-06-05T08:41:20;99321.19;;;23.83;32.03
66627;BME280;53498;50.422;14.912;2023-06-05T08:43:46;99330.16;;;23.81;31.63
66627;BME280;53498;50.422;14.912;2023-06-05T08:46:13;99329.56;;;23.75;31.58
66627;BME280;53498;50.422;14.912;2023-06-05T08:48:47;99315.31;;;23.40;31.36
66627;BME280;53498;50.422;14.912;2023-06-05T08:51:14;99318.03;;;23.75;31.83
66627;BME280;53498;50.422;14.912;2023-06-05T08:54:02;99326.38;;;23.67;32.09
66627;BME280;53498;50.422;14.912;2023-06-05T08:56:39;99320.09;;;23.70;32.62
66627;BME280;53498;50.422;14.912;2023-06-05T08:59:08;99325.69;;;23.81;31.79
66627;BME280;53498;50.422;14.912;2023-06-05T09:01:33;99324.44;;;23.71;30.88
66627;BME280;53498;50.422;14.912;2023-06-05T09:03:59;99314.78;;;23.51;31.71
66627;BME280;53498;50.422;14.912;2023-06-05T09:06:25;99313.53;;;24.12;32.03
66627;BME280;53498;50.422;14.912;2023-06-05T09:08:51;99313.78;;;23.72;33.06
66627;BME280;53498;50.422;14.912;2023-06-05T09:11:25;99320.25;;;23.84;32.88
66627;BME280;53498;50.422;14.912;2023-06-05T09:13:54;99310.72;;;24.15;32.67
66627;BME280;53498;50.422;14.912;2023-06-05T09:16:21;99323.13;;;23.80;32.29
66627;BME280;53498;50.422;14.912;2023-06-05T09:18:57;99315.88;;;23.83;32.51
66627;BME280;53498;50.422;14.912;2023-06-05T09:21:25;99315.94;;;23.99;31.80
66627;BME280;53498;50.422;14.912;2023-06-05T09:29:29;99321.81;;;23.52;30.75
66627;BME280;53498;50.422;14.912;2023-06-05T09:32:02;99307.63;;;23.34;31.35
66627;BME280;53498;50.422;14.912;2023-06-05T09:34:39;99313.06;;;23.50;30.15
66627;BME280;53498;50.422;14.912;2023-06-05T09:37:10;99299.78;;;23.14;30.77
66627;BME280;53498;50.422;14.912;2023-06-05T09:39:39;99297.16;;;23.31;31.82
66627;BME280;53498;50.422;14.912;2023-06-05T09:42:05;99312.16;;;23.68;31.01
66627;BME280;53498;50.422;14.912;2023-06-05T09:44:34;99303.63;;;23.44;30.46
66627;BME280;53498;50.422;14.912;2023-06-05T09:47:04;99297.03;;;23.15;31.25
66627;BME280;53498;50.422;14.912;2023-06-05T09:52:11;99300.03;;;23.45;31.51
66627;BME280;53498;50.422;14.912;2023-06-05T09:54:38;99306.00;;;23.13;30.91
66627;BME280;53498;50.422;14.912;2023-06-05T09:57:06;99306.47;;;23.40;31.62
66627;BME280;53498;50.422;14.912;2023-06-05T09:59:40;99312.13;;;23.51;30.68
66627;BME280;53498;50.422;14.912;2023-06-05T10:02:07;99307.44;;;23.39;31.05
66627;BME280;53498;50.422;14.912;2023-06-05T10:04:40;99301.03;;;23.43;31.09
66627;BME280;53498;50.422;14.912;2023-06-05T10:07:07;99299.00;;;23.48;30.62
66627;BME280;53498;50.422;14.912;2023-06-05T10:09:34;99306.34;;;23.43;30.72
66627;BME280;53498;50.422;14.912;2023-06-05T10:12:01;99297.53;;;23.78;30.98
66627;BME280;53498;50.422;14.912;2023-06-05T10:14:28;99296.38;;;23.65;31.80
66627;BME280;53498;50.422;14.912;2023-06-05T10:16:55;99290.47;;;23.77;30.70
66627;BME280;53498;50.422;14.912;2023-06-05T10:19:22;99283.69;;;24.40;30.25
66627;BME280;53498;50.422;14.912;2023-06-05T10:21:50;99279.72;;;24.31;29.87
66627;BME280;53498;50.422;14.912;2023-06-05T10:24:21;99278.75;;;23.99;30.13
66627;BME280;53498;50.422;14.912;2023-06-05T10:32:54;99280.94;;;24.08;31.65
66627;BME280;53498;50.422;14.912;2023-06-05T10:40:48;99274.22;;;23.84;30.92
66627;BME280;53498;50.422;14.912;2023-06-05T10:43:32;99268.59;;;23.90;31.47
66627;BME280;53498;50.422;14.912;2023-06-05T10:46:48;99273.41;;;23.64;31.64
66627;BME280;53498;50.422;14.912;2023-06-05T10:49:25;99261.09;;;23.81;31.36
66627;BME280;53498;50.422;14.912;2023-06-05T10:51:50;99276.81;;;23.85;32.22
66627;BME280;53498;50.422;14.912;2023-06-05T10:59:37;99270.53;;;23.69;31.76
66627;BME280;53498;50.422;14.912;2023-06-05T11:08:12;99264.50;;;24.00;30.45
66627;BME280;53498;50.422;14.912;2023-06-05T11:14:00;99242.44;;;24.33;31.12
66627;BME280;53498;50.422;14.912;2023-06-05T11:16:33;99253.41;;;24.09;30.82
66627;BME280;53498;50.422;14.912;2023-06-05T11:22:08;99249.06;;;23.73;30.64
66627;BME280;53498;50.422;14.912;2023-06-05T11:24:35;99261.25;;;23.95;29.97
66627;BME280;53498;50.422;14.912;2023-06-05T11:27:03;99264.44;;;23.84;29.84
66627;BME280;53498;50.422;14.912;2023-06-05T11:29:29;99252.94;;;23.49;31.06
66627;BME280;53498;50.422;14.912;2023-06-05T11:31:55;99262.25;;;23.75;31.11
66627;BME280;53498;50.422;14.912;2023-06-05T11:34:21;99268.28;;;23.96;30.85
66627;BME280;53498;50.422;14.912;2023-06-05T11:36:47;99249.84;;;23.93;31.11
66627;BME280;53498;50.422;14.912;2023-06-05T11:39:13;99259.19;;;24.00;29.74
66627;BME280;53498;50.422;14.912;2023-06-05T11:41:43;99259.03;;;24.03;30.34
66627;BME280;53498;50.422;14.912;2023-06-05T11:44:14;99260.34;;;23.60;30.77
66627;BME280;53498;50.422;14.912;2023-06-05T11:46:41;99267.06;;;23.49;30.86
66627;BME280;53498;50.422;14.912;2023-06-05T11:49:24;99259.59;;;23.75;30.82
66627;BME280;53498;50.422;14.912;2023-06-05T11:51:51;99256.22;;;23.54;30.71
66627;BME280;53498;50.422;14.912;2023-06-05T11:54:30;99259.53;;;23.76;30.02
66627;BME280;53498;50.422;14.912;2023-06-05T11:56:57;99265.91;;;23.55;30.45
66627;BME280;53498;50.422;14.912;2023-06-05T11:59:23;99250.34;;;23.65;30.16
66627;BME280;53498;50.422;14.912;2023-06-05T12:01:50;99245.28;;;24.12;30.30
66627;BME280;53498;50.422;14.912;2023-06-05T12:04:19;99250.38;;;23.99;30.22
66627;BME280;53498;50.422;14.912;2023-06-05T12:06:46;99251.63;;;23.58;30.99
66627;BME280;53498;50.422;14.912;2023-06-05T12:09:13;99250.72;;;23.76;31.51
66627;BME280;53498;50.422;14.912;2023-06-05T12:11:41;99249.41;;;23.66;31.38
66627;BME280;53498;50.422;14.912;2023-06-05T12:14:10;99247.38;;;23.72;31.11
66627;BME280;53498;50.422;14.912;2023-06-05T12:16:38;99250.47;;;23.81;30.93
66627;BME280;53498;50.422;14.912;2023-06-05T12:19:14;99250.28;;;23.66;30.88
66627;BME280;53498;50.422;14.912;2023-06-05T12:21:41;99249.28;;;23.69;31.05
66627;BME280;53498;50.422;14.912;2023-06-05T12:24:07;99244.75;;;23.53;30.92
66627;BME280;53498;50.422;14.912;2023-06-05T12:26:55;99241.53;;;23.64;31.75
66627;BME280;53498;50.422;14.912;2023-06-05T12:29:28;99241.00;;;23.58;31.77
66627;BME280;53498;50.422;14.912;2023-06-05T12:31:56;99248.13;;;23.74;31.97
66627;BME280;53498;50.422;14.912;2023-06-05T12:34:42;99247.19;;;23.93;32.21
66627;BME280;53498;50.422;14.912;2023-06-05T12:37:11;99246.22;;;23.59;32.44
66627;BME280;53498;50.422;14.912;2023-06-05T12:39:38;99244.47;;;23.41;32.95
66627;BME280;53498;50.422;14.912;2023-06-05T12:42:04;99257.91;;;23.38;34.14
66627;BME280;53498;50.422;14.912;2023-06-05T12:44:30;99258.75;;;22.83;36.46
66627;BME280;53498;50.422;14.912;2023-06-05T12:46:56;99251.75;;;22.63;37.93
66627;BME280;53498;50.422;14.912;2023-06-05T12:49:22;99250.13;;;22.59;38.40
66627;BME280;53498;50.422;14.912;2023-06-05T12:51:48;99253.50;;;22.44;38.72
66627;BME280;53498;50.422;14.912;2023-06-05T12:54:13;99262.28;;;22.05;39.64
66627;BME280;53498;50.422;14.912;2023-06-05T12:56:43;99255.44;;;21.99;39.90
66627;BME280;53498;50.422;14.912;2023-06-05T12:59:10;99249.19;;;21.81;40.58
66627;BME280;53498;50.422;14.912;2023-06-05T13:01:36;99248.72;;;21.92;41.64
66627;BME280;53498;50.422;14.912;2023-06-05T13:04:02;99255.22;;;21.42;42.73
66627;BME280;53498;50.422;14.912;2023-06-05T13:06:27;99253.16;;;21.27;43.92
66627;BME280;53498;50.422;14.912;2023-06-05T13:08:53;99252.91;;;21.33;43.46
66627;BME280;53498;50.422;14.912;2023-06-05T13:11:19;99240.56;;;21.12;43.72
66627;BME280;53498;50.422;14.912;2023-06-05T13:13:45;99252.06;;;21.11;44.20
66627;BME280;53498;50.422;14.912;2023-06-05T13:16:10;99257.03;;;20.96;44.94
66627;BME280;53498;50.422;14.912;2023-06-05T13:18:36;99249.16;;;20.95;45.96
66627;BME280;53498;50.422;14.912;2023-06-05T13:21:03;99259.81;;;20.93;48.03
66627;BME280;53498;50.422;14.912;2023-06-05T13:23:29;99255.56;;;20.89;50.15
66627;BME280;53498;50.422;14.912;2023-06-05T13:25:55;99254.94;;;20.83;52.17
66627;BME280;53498;50.422;14.912;2023-06-05T13:28:20;99250.03;;;20.48;54.73
66627;BME280;53498;50.422;14.912;2023-06-05T13:30:46;99265.09;;;20.23;56.79